Time;durP1;ratioP1;P1;durP2;ratioP2;P2;SDS_P1;SDS_P2;PMS_P1;PMS_P2;Temp;Humidity;BMP_temperature;BMP_pressure;BME280_temperature;BME280_humidity;BME280_pressure;Samples;Min_cycle;Max_cycle;Signal;HPM_P1;HPM_P2
2023/12/01 00:01:27;;;;;;;;;14.00;14.00;;;;;23.40;28.81;100394.06;245426;1179;73650;-75
2023/12/01 00:06:31;;;;;;;;;14.00;14.00;;;;;23.39;29.01;100405.40;245387;1183;73637;-75
2023/12/01 00:11:35;;;;;;;;;15.75;15.75;;;;;23.39;28.94;100402.94;245386;1183;73297;-75
2023/12/01 00:16:39;;;;;;;;;16.25;14.00;;;;;23.38;29.03;100408.23;245387;1182;73735;-75
2023/12/01 00:21:43;;;;;;;;;14.50;14.50;;;;;23.38;28.82;100395.38;245272;1177;73278;-75
2023/12/01 00:26:47;;;;;;;;;18.00;17.50;;;;;23.38;28.86;100376.00;245382;1183;73707;-75
2023/12/01 00:31:51;;;;;;;;;13.67;13.67;;;;;23.38;28.83;100343.64;245417;1180;73299;-75
2023/12/01 00:36:55;;;;;;;;;17.00;17.00;;;;;23.37;29.12;100337.09;245357;1179;73105;-75
2023/12/01 00:42:00;;;;;;;;;15.00;12.25;;;;;23.38;29.06;100332.99;245375;1182;73605;-75
2023/12/01 00:47:04;;;;;;;;;15.00;15.00;;;;;23.37;28.91;100356.83;245427;1183;73226;-75
2023/12/01 00:52:09;;;;;;;;;17.75;17.75;;;;;23.36;29.00;100360.25;245355;1182;73984;-75
2023/12/01 00:57:13;;;;;;;;;14.25;13.75;;;;;23.35;28.73;100358.36;245381;1183;73238;-75
2023/12/01 01:02:18;;;;;;;;;16.75;16.00;;;;;23.35;28.88;100348.88;245382;1179;73507;-75
2023/12/01 01:07:22;;;;;;;;;15.75;15.75;;;;;23.35;28.81;100324.41;245435;1183;73675;-75
2023/12/01 01:12:26;;;;;;;;;17.25;17.25;;;;;23.35;28.85;100320.10;245370;1191;72894;-75
2023/12/01 01:17:33;;;;;;;;;15.00;15.00;;;;;23.33;28.89;100313.67;245395;1177;73448;-75
2023/12/01 01:22:38;;;;;;;;;14.75;14.25;;;;;23.34;28.81;100318.66;245342;1183;73445;-75
2023/12/01 01:27:42;;;;;;;;;16.00;15.50;;;;;23.34;28.79;100316.48;245365;1183;73002;-75
2023/12/01 01:32:46;;;;;;;;;14.00;13.33;;;;;23.34;28.81;100320.88;245431;1184;72614;-75
2023/12/01 01:37:51;;;;;;;;;12.00;12.00;;;;;23.33;28.71;100326.11;245395;1183;74214;-75
2023/12/01 01:42:55;;;;;;;;;14.67;14.67;;;;;23.32;28.78;100310.52;245391;1182;72892;-75
2023/12/01 01:47:59;;;;;;;;;15.50;15.00;;;;;23.32;28.82;100294.48;245384;1177;74522;-75
2023/12/01 01:53:04;;;;;;;;;14.25;14.25;;;;;23.33;28.89;100283.59;245401;1180;73434;-75
2023/12/01 01:58:09;;;;;;;;;13.75;13.75;;;;;23.33;28.91;100280.27;245347;1182;73014;-75
2023/12/01 02:03:13;;;;;;;;;12.25;12.25;;;;;23.33;28.72;100274.52;245373;1178;73208;-75
2023/12/01 02:08:35;;;;;;;;;15.00;15.00;;;;;23.33;28.79;100274.70;245380;1191;72686;-75
2023/12/01 02:13:40;;;;;;;;;15.75;15.75;;;;;23.33;28.81;100264.48;245371;1183;73542;-75
2023/12/01 02:18:44;;;;;;;;;19.67;16.33;;;;;23.32;28.78;100248.15;245402;1183;73439;-75
2023/12/01 02:23:48;;;;;;;;;13.50;13.50;;;;;23.31;28.83;100239.80;245397;1183;74082;-75
2023/12/01 02:28:51;;;;;;;;;12.50;12.50;;;;;23.31;28.79;100244.59;245380;1182;73872;-75
2023/12/01 02:33:55;;;;;;;;;12.33;12.33;;;;;23.31;28.87;100246.23;245429;1182;73344;-75
2023/12/01 02:39:00;;;;;;;;;14.00;12.00;;;;;23.31;28.75;100245.01;245357;1179;73014;-75
2023/12/01 02:44:03;;;;;;;;;16.25;16.25;;;;;23.31;28.84;100226.36;245345;1179;73543;-75
2023/12/01 02:49:08;;;;;;;;;15.00;14.50;;;;;23.31;28.59;100222.98;245390;1182;72944;-75
2023/12/01 02:54:13;;;;;;;;;12.75;12.75;;;;;23.30;28.74;100220.34;245377;1180;73507;-75
2023/12/01 02:59:17;;;;;;;;;16.00;15.75;;;;;23.30;28.78;100216.23;245349;1177;72861;-75
2023/12/01 03:04:21;;;;;;;;;15.00;15.00;;;;;23.28;28.78;100207.40;245356;1183;73060;-75
2023/12/01 03:09:26;;;;;;;;;14.50;14.50;;;;;23.27;28.62;100190.02;245389;1182;73239;-75
2023/12/01 03:14:30;;;;;;;;;13.50;13.50;;;;;23.25;28.81;100173.84;245364;1184;73796;-75
2023/12/01 03:19:34;;;;;;;;;13.75;13.75;;;;;23.26;28.61;100185.55;245375;1177;74163;-75
2023/12/01 03:24:41;;;;;;;;;15.00;15.00;;;;;23.26;28.51;100179.86;245342;1183;73496;-75
2023/12/01 03:29:46;;;;;;;;;14.00;14.00;;;;;23.26;28.48;100168.17;245394;1190;74233;-75
2023/12/01 03:34:49;;;;;;;;;15.50;15.50;;;;;23.25;28.43;100165.20;245358;1179;73573;-76
2023/12/01 03:39:54;;;;;;;;;15.50;15.50;;;;;23.23;28.39;100164.40;245412;1177;73776;-76
2023/12/01 03:44:58;;;;;;;;;15.25;14.75;;;;;23.22;28.49;100164.66;245356;1180;74187;-75
2023/12/01 03:50:03;;;;;;;;;15.50;14.75;;;;;23.21;28.34;100161.36;245388;1177;72826;-75
2023/12/01 03:55:08;;;;;;;;;13.75;13.50;;;;;23.20;28.42;100151.69;245369;1183;73013;-75
2023/12/01 04:00:16;;;;;;;;;14.00;14.00;;;;;23.21;28.44;100146.22;245397;1183;74051;-75
2023/12/01 04:05:25;;;;;;;;;15.25;14.25;;;;;23.20;28.60;100140.66;245422;1183;74446;-75
2023/12/01 04:10:29;;;;;;;;;16.25;15.50;;;;;23.20;28.30;100136.88;245358;1177;73490;-75
2023/12/01 04:15:37;;;;;;;;;16.00;16.00;;;;;23.20;28.39;100138.30;245419;1177;73322;-75
2023/12/01 04:20:41;;;;;;;;;14.00;14.00;;;;;23.20;28.52;100136.16;245365;1183;74352;-75
2023/12/01 04:25:46;;;;;;;;;16.25;14.00;;;;;23.19;28.29;100127.64;245367;1184;73738;-75
2023/12/01 04:30:51;;;;;;;;;13.50;13.50;;;;;23.19;28.31;100113.94;245361;1177;73116;-75
2023/12/01 04:35:55;;;;;;;;;16.33;14.33;;;;;23.19;28.27;100095.55;245358;1182;73906;-75
2023/12/01 04:41:03;;;;;;;;;14.00;14.00;;;;;23.19;28.29;100105.38;245348;1182;73271;-75
2023/12/01 04:46:07;;;;;;;;;13.50;13.50;;;;;23.18;28.18;100116.23;245341;1183;73357;-75
2023/12/01 04:51:11;;;;;;;;;15.00;15.00;;;;;23.17;28.25;100121.06;245383;1177;73759;-75
2023/12/01 04:56:15;;;;;;;;;15.50;15.25;;;;;23.17;28.32;100123.20;245377;1183;73702;-75
2023/12/01 05:01:20;;;;;;;;;15.00;14.33;;;;;23.17;28.16;100116.33;245396;1182;73379;-75
2023/12/01 05:06:24;;;;;;;;;13.50;13.50;;;;;23.18;28.31;100111.27;245352;1183;74058;-75
2023/12/01 05:11:28;;;;;;;;;12.33;12.33;;;;;23.18;28.22;100121.96;245327;1180;73592;-75
2023/12/01 05:16:32;;;;;;;;;15.75;14.25;;;;;23.18;28.13;100101.98;245381;1183;73209;-75
2023/12/01 05:21:35;;;;;;;;;15.75;15.75;;;;;23.18;28.28;100084.03;245417;1182;73448;-75
2023/12/01 05:26:40;;;;;;;;;15.50;13.50;;;;;23.20;28.27;100084.13;245342;1183;73196;-75
2023/12/01 05:31:43;;;;;;;;;13.50;13.50;;;;;23.20;28.39;100064.94;245379;1183;73139;-75
2023/12/01 05:36:50;;;;;;;;;15.75;15.75;;;;;23.20;28.49;100060.40;245370;1179;72963;-75
2023/12/01 05:41:54;;;;;;;;;13.00;13.00;;;;;23.20;28.51;100064.98;245365;1182;73098;-75
2023/12/01 05:46:59;;;;;;;;;13.25;13.25;;;;;23.20;28.51;100083.20;245332;1183;73082;-75
2023/12/01 05:52:03;;;;;;;;;11.25;11.25;;;;;23.20;28.19;100089.58;245344;1177;73341;-75
2023/12/01 05:57:07;;;;;;;;;13.50;13.50;;;;;23.19;28.23;100085.65;245344;1180;74287;-75
2023/12/01 06:02:11;;;;;;;;;15.00;14.25;;;;;23.20;28.44;100085.88;245336;1182;73242;-75
2023/12/01 06:07:16;;;;;;;;;13.00;13.00;;;;;23.21;28.46;100090.15;245421;1182;74343;-75
2023/12/01 06:12:20;;;;;;;;;12.75;12.75;;;;;23.20;28.49;100092.59;245391;1182;73187;-75
2023/12/01 06:17:25;;;;;;;;;13.50;13.50;;;;;23.21;28.59;100090.86;245359;1184;73151;-75
2023/12/01 06:22:29;;;;;;;;;16.00;14.00;;;;;23.22;28.71;100079.54;245382;1184;73181;-75
2023/12/01 06:27:33;;;;;;;;;14.67;14.67;;;;;23.23;28.63;100087.80;245355;1183;72939;-75
2023/12/01 06:32:38;;;;;;;;;14.25;14.25;;;;;23.23;28.56;100092.38;245243;1183;72955;-75
2023/12/01 06:37:43;;;;;;;;;15.50;15.25;;;;;23.23;28.53;100087.79;245350;1183;72967;-75
2023/12/01 06:42:53;;;;;;;;;13.33;12.33;;;;;23.24;28.53;100085.52;245342;1182;72880;-75
2023/12/01 06:47:59;;;;;;;;;12.25;12.25;;;;;23.24;28.40;100078.54;245359;1177;73701;-75
2023/12/01 06:53:06;;;;;;;;;13.00;13.00;;;;;23.25;28.62;100085.16;245381;1183;73262;-75
2023/12/01 06:58:10;;;;;;;;;12.75;11.25;;;;;23.26;28.78;100101.71;245365;1182;72585;-75
2023/12/01 07:03:14;;;;;;;;;13.75;13.75;;;;;23.27;28.72;100111.89;245379;1191;73224;-75
2023/12/01 07:08:19;;;;;;;;;13.00;13.00;;;;;23.27;28.75;100106.11;245398;1183;72817;-75
2023/12/01 07:13:23;;;;;;;;;13.75;13.50;;;;;23.29;28.39;100102.45;245378;1184;73646;-75
2023/12/01 07:18:27;;;;;;;;;14.00;14.00;;;;;23.30;28.67;100094.50;245372;1182;73436;-75
2023/12/01 07:23:36;;;;;;;;;13.75;13.75;;;;;23.31;28.53;100101.77;245368;1180;73716;-75
2023/12/01 07:28:41;;;;;;;;;15.67;13.33;;;;;23.33;28.33;100106.18;245395;1183;73394;-75
2023/12/01 07:33:46;;;;;;;;;14.25;13.75;;;;;23.35;28.55;100102.11;245378;1178;74268;-75
2023/12/01 07:38:50;;;;;;;;;12.50;12.50;;;;;23.37;28.38;100095.85;245349;1183;73565;-75
2023/12/01 07:43:55;;;;;;;;;13.75;13.75;;;;;23.39;28.40;100079.95;245374;1182;73468;-75
2023/12/01 07:48:59;;;;;;;;;19.25;16.25;;;;;23.39;28.46;100070.78;245374;1180;73563;-76
2023/12/01 07:54:12;;;;;;;;;14.50;14.50;;;;;23.40;28.38;100067.04;245373;1180;73020;-75
2023/12/01 07:59:16;;;;;;;;;10.75;10.75;;;;;23.41;28.34;100066.29;245350;1183;74093;-75
2023/12/01 08:04:20;;;;;;;;;16.00;15.50;;;;;23.41;28.33;100063.24;245414;1183;72388;-75
2023/12/01 08:09:24;;;;;;;;;11.75;11.75;;;;;23.42;28.25;100064.69;245394;1183;73596;-75
2023/12/01 08:14:29;;;;;;;;;14.50;14.50;;;;;23.46;28.29;100073.47;245372;1183;72673;-75
2023/12/01 08:19:34;;;;;;;;;15.67;15.67;;;;;23.47;28.28;100082.40;245395;1183;72603;-75
2023/12/01 08:24:39;;;;;;;;;14.25;14.25;;;;;23.49;28.46;100081.90;245399;1182;73500;-75
2023/12/01 08:29:44;;;;;;;;;17.50;15.50;;;;;23.52;28.17;100098.05;245410;1183;73322;-75
2023/12/01 08:34:50;;;;;;;;;14.00;13.75;;;;;23.53;28.29;100090.15;245355;1183;72794;-75
2023/12/01 08:39:54;;;;;;;;;14.00;13.50;;;;;23.54;28.17;100089.35;245379;1182;72973;-75
2023/12/01 08:45:00;;;;;;;;;13.00;13.00;;;;;23.55;27.95;100076.93;245381;1177;73079;-75
2023/12/01 08:50:05;;;;;;;;;13.75;13.75;;;;;23.56;28.06;100066.71;245400;1184;72740;-75
2023/12/01 08:55:12;;;;;;;;;11.33;11.33;;;;;23.59;28.08;100065.27;245351;1183;73046;-75
2023/12/01 09:00:20;;;;;;;;;16.25;14.50;;;;;23.61;28.00;100056.27;245407;1183;72024;-75
2023/12/01 09:05:26;;;;;;;;;13.25;13.25;;;;;23.63;27.90;100052.11;245412;1183;73892;-74
2023/12/01 09:10:30;;;;;;;;;14.33;14.33;;;;;23.67;27.88;100036.30;245441;1177;72056;-74
2023/12/01 09:15:34;;;;;;;;;13.25;13.25;;;;;23.70;27.85;100030.08;245438;1191;73967;-74
2023/12/01 09:20:39;;;;;;;;;13.50;13.25;;;;;23.72;27.85;100019.58;245417;1184;72918;-75
2023/12/01 09:25:43;;;;;;;;;11.67;11.67;;;;;23.76;27.57;100018.78;245397;1177;72975;-75
2023/12/01 09:30:48;;;;;;;;;15.00;15.00;;;;;23.81;27.71;100007.73;245421;1182;73570;-74
2023/12/01 09:35:52;;;;;;;;;14.50;13.00;;;;;23.81;27.49;100004.62;245461;1183;73558;-75
2023/12/01 09:41:02;;;;;;;;;14.00;14.00;;;;;23.81;27.69;99993.70;245429;1183;73879;-76
2023/12/01 09:46:07;;;;;;;;;13.25;13.25;;;;;23.78;27.71;99985.13;245433;1178;73691;-75
2023/12/01 09:51:11;;;;;;;;;12.00;11.00;;;;;23.77;27.74;99985.00;245438;1183;72946;-75
2023/12/01 09:56:16;;;;;;;;;13.25;13.25;;;;;23.76;27.79;99983.23;245436;1184;72889;-75
2023/12/01 10:01:21;;;;;;;;;13.75;13.75;;;;;23.75;27.91;99989.88;245420;1182;71870;-76
2023/12/01 10:06:27;;;;;;;;;16.00;16.00;;;;;23.76;27.66;99982.46;245413;1177;74061;-75
2023/12/01 10:11:31;;;;;;;;;16.33;14.67;;;;;23.79;27.90;99973.07;245404;1183;71984;-75
2023/12/01 10:16:36;;;;;;;;;14.00;14.00;;;;;23.83;27.85;99967.26;245411;1183;73224;-75
2023/12/01 10:21:45;;;;;;;;;14.75;13.50;;;;;23.93;27.57;99961.08;245427;1178;72784;-75
2023/12/01 10:26:54;;;;;;;;;13.25;13.25;;;;;23.95;27.64;99955.65;245431;1177;73778;-75
2023/12/01 10:32:00;;;;;;;;;12.75;12.75;;;;;24.11;27.35;99961.58;245426;1180;73163;-75
2023/12/01 10:37:05;;;;;;;;;14.50;13.25;;;;;24.27;27.10;99978.77;245488;1183;73469;-75
2023/12/01 10:42:10;;;;;;;;;13.67;13.00;;;;;24.56;26.71;99979.33;245471;1183;73056;-75
2023/12/01 10:47:16;;;;;;;;;14.00;14.00;;;;;24.54;26.74;99969.78;245478;1183;73219;-75
2023/12/01 10:52:20;;;;;;;;;13.00;13.00;;;;;24.66;26.59;99958.48;245442;1183;73061;-76
2023/12/01 10:57:50;;;;;;;;;12.50;12.50;;;;;24.59;26.70;99963.56;245413;1190;73072;-76
2023/12/01 11:02:59;;;;;;;;;13.25;13.25;;;;;24.60;26.60;99952.86;245457;1183;74066;-75
2023/12/01 11:08:22;;;;;;;;;12.25;12.25;;;;;24.54;26.72;99963.11;245442;1183;72731;-75
2023/12/01 11:14:04;;;;;;;;;12.50;11.75;;;;;24.40;26.88;99972.59;245501;1183;72616;-75
2023/12/01 11:19:11;;;;;;;;;12.25;11.25;;;;;24.32;27.02;99974.84;245488;1182;72544;-75
2023/12/01 11:24:32;;;;;;;;;11.75;11.75;;;;;24.30;27.09;99970.66;245427;1178;73701;-75
2023/12/01 11:29:39;;;;;;;;;11.75;11.75;;;;;24.27;27.20;99960.67;245487;1182;73028;-76
2023/12/01 11:35:09;;;;;;;;;12.75;12.75;;;;;24.27;27.16;99954.11;245454;1183;72604;-75
2023/12/01 11:40:29;;;;;;;;;12.50;12.50;;;;;24.21;27.25;99946.00;245492;1182;73304;-77
2023/12/01 11:45:41;;;;;;;;;12.25;12.25;;;;;24.26;27.17;99934.10;245508;1182;72917;-76
2023/12/01 11:50:46;;;;;;;;;14.25;12.25;;;;;24.27;27.16;99932.48;245465;1177;73715;-75
2023/12/01 11:55:50;;;;;;;;;13.25;13.25;;;;;24.19;27.22;99933.89;245448;1183;73294;-75
2023/12/01 12:01:07;;;;;;;;;17.33;15.00;;;;;24.16;27.26;99931.71;245456;1179;73225;-75
2023/12/01 12:06:14;;;;;;;;;12.00;12.00;;;;;24.16;27.43;99921.61;245501;1182;72626;-75
2023/12/01 12:11:19;;;;;;;;;13.75;13.25;;;;;24.27;27.24;99928.55;245482;1180;73118;-75
2023/12/01 12:16:23;;;;;;;;;17.50;14.25;;;;;24.34;27.20;99927.98;245441;1183;73802;-75
2023/12/01 12:21:28;;;;;;;;;14.33;12.67;;;;;24.27;27.37;99929.58;245439;1180;74420;-75
2023/12/01 12:26:33;;;;;;;;;13.00;11.50;;;;;24.21;27.31;99924.90;245411;1183;73174;-75
2023/12/01 12:31:38;;;;;;;;;13.25;13.25;;;;;24.22;27.30;99914.20;245508;1177;72587;-75
2023/12/01 12:36:43;;;;;;;;;12.00;11.75;;;;;24.20;27.36;99919.98;245480;1184;73606;-75
2023/12/01 12:42:09;;;;;;;;;;;;;;;;;;;;;
2023/12/01 12:47:20;;;;;;;;;14.25;14.25;;;;;24.18;27.33;99915.89;245459;1191;72845;-75
2023/12/01 12:52:24;;;;;;;;;15.00;13.50;;;;;24.16;27.41;99917.40;245472;1179;73212;-75
2023/12/01 12:57:29;;;;;;;;;13.33;13.33;;;;;24.14;27.53;99917.69;245459;1182;73379;-75
2023/12/01 13:02:34;;;;;;;;;11.00;11.00;;;;;24.09;27.55;99913.27;245480;1184;73336;-75
2023/12/01 13:07:38;;;;;;;;;10.75;10.75;;;;;24.07;27.60;99905.84;245470;1182;73044;-75
2023/12/01 13:12:41;;;;;;;;;13.50;13.50;;;;;24.04;27.77;99903.82;245438;1182;73160;-75
2023/12/01 13:17:45;;;;;;;;;12.00;12.00;;;;;24.02;27.69;99896.86;245465;1182;73717;-75
2023/12/01 13:22:49;;;;;;;;;12.00;12.00;;;;;23.99;27.76;99903.70;245444;1183;73404;-75
2023/12/01 13:27:53;;;;;;;;;15.50;13.50;;;;;23.97;27.79;99923.38;245431;1183;73100;-75
2023/12/01 13:32:57;;;;;;;;;14.50;13.50;;;;;23.93;27.90;99928.02;245456;1183;73235;-75
2023/12/01 13:38:02;;;;;;;;;15.00;14.25;;;;;23.90;27.93;99934.80;245476;1183;72755;-75
2023/12/01 13:43:09;;;;;;;;;14.00;14.00;;;;;23.88;27.97;99937.28;245466;1180;73007;-75
2023/12/01 13:48:13;;;;;;;;;13.50;12.00;;;;;23.85;28.04;99953.20;245442;1182;72918;-76
2023/12/01 13:53:17;;;;;;;;;13.00;13.00;;;;;23.83;28.13;99962.96;245474;1183;73055;-75
2023/12/01 13:58:26;;;;;;;;;15.25;13.50;;;;;23.80;28.13;99964.69;245463;1179;73480;-75
2023/12/01 14:03:31;;;;;;;;;13.00;13.00;;;;;23.75;28.07;99967.33;245473;1183;73250;-76
2023/12/01 14:08:35;;;;;;;;;14.25;14.25;;;;;23.72;28.22;99963.45;245483;1191;73514;-76
2023/12/01 14:13:40;;;;;;;;;13.50;13.50;;;;;23.70;28.41;99958.71;245416;1183;73389;-76
2023/12/01 14:18:46;;;;;;;;;13.00;12.50;;;;;23.66;28.34;99957.18;245451;1183;73362;-75
2023/12/01 14:23:51;;;;;;;;;12.25;12.25;;;;;23.65;28.52;99952.20;245467;1191;73087;-75
2023/12/01 14:28:55;;;;;;;;;14.25;14.25;;;;;23.63;28.46;99958.46;245458;1180;73504;-75
2023/12/01 14:34:00;;;;;;;;;17.50;14.00;;;;;23.61;28.48;99960.34;245453;1183;72993;-75
2023/12/01 14:39:07;;;;;;;;;12.33;12.33;;;;;23.60;28.64;99955.73;245466;1183;73663;-75
2023/12/01 14:44:12;;;;;;;;;13.25;12.75;;;;;23.58;28.86;99962.17;245470;1177;73676;-75
2023/12/01 14:49:16;;;;;;;;;15.25;15.25;;;;;23.57;28.61;99976.20;245404;1183;73516;-75
2023/12/01 14:54:19;;;;;;;;;10.00;10.00;;;;;23.55;28.73;99967.06;245412;1180;73851;-75
2023/12/01 14:59:25;;;;;;;;;15.33;13.00;;;;;23.52;28.76;99951.16;245430;1183;73719;-75
2023/12/01 15:04:29;;;;;;;;;15.75;14.75;;;;;23.52;28.84;99962.45;245485;1184;73693;-76
2023/12/01 15:09:33;;;;;;;;;12.00;11.75;;;;;23.50;28.86;99959.66;245440;1182;72860;-76
2023/12/01 15:14:37;;;;;;;;;11.33;11.33;;;;;23.49;29.03;99968.48;245432;1182;73557;-75
2023/12/01 15:19:41;;;;;;;;;16.00;16.00;;;;;23.48;28.91;99973.85;245399;1182;73577;-76
2023/12/01 15:24:46;;;;;;;;;13.50;13.50;;;;;23.47;28.97;99991.08;245431;1182;72897;-76
2023/12/01 15:29:51;;;;;;;;;12.25;12.25;;;;;23.47;29.19;99999.16;245423;1182;73606;-75
2023/12/01 15:34:55;;;;;;;;;12.50;12.50;;;;;23.44;29.18;100006.95;245398;1177;73057;-76
2023/12/01 15:39:59;;;;;;;;;14.25;12.00;;;;;23.43;29.11;100009.45;245430;1183;73201;-75
2023/12/01 15:45:05;;;;;;;;;11.75;11.75;;;;;23.42;29.23;100000.60;245397;1177;73582;-75
2023/12/01 15:50:09;;;;;;;;;12.33;12.33;;;;;23.41;29.05;99995.62;245397;1183;73759;-75
2023/12/01 15:55:13;;;;;;;;;16.00;15.25;;;;;23.39;29.31;99988.38;245415;1178;73318;-75
2023/12/01 16:00:17;;;;;;;;;12.75;12.75;;;;;23.39;29.20;99998.67;245423;1177;72178;-75
2023/12/01 16:05:22;;;;;;;;;13.75;13.75;;;;;23.39;29.22;99982.73;245475;1183;72382;-75
2023/12/01 16:10:25;;;;;;;;;14.00;14.00;;;;;23.37;29.35;99980.37;245465;1182;73301;-75
2023/12/01 16:15:29;;;;;;;;;12.75;12.50;;;;;23.37;29.19;99972.78;245429;1183;72494;-75
2023/12/01 16:20:33;;;;;;;;;15.25;14.00;;;;;23.37;29.38;99976.33;245397;1183;72613;-75
2023/12/01 16:25:38;;;;;;;;;13.50;13.50;;;;;23.36;29.33;99976.96;245414;1177;73257;-75
2023/12/01 16:30:42;;;;;;;;;14.00;12.75;;;;;23.33;29.51;99971.95;243728;1180;74190;-75
2023/12/01 16:35:46;;;;;;;;;11.00;11.00;;;;;23.21;29.49;99964.61;245383;1183;73429;-75
2023/12/01 16:40:51;;;;;;;;;13.00;13.00;;;;;23.26;29.59;99957.45;245450;1183;73299;-75
2023/12/01 16:45:55;;;;;;;;;11.33;11.00;;;;;23.29;29.47;99956.96;245399;1178;72775;-75
2023/12/01 16:51:01;;;;;;;;;13.75;13.75;;;;;23.31;29.44;99969.11;245426;1183;74081;-75
2023/12/01 16:56:06;;;;;;;;;13.00;13.00;;;;;23.31;29.32;99967.97;245431;1182;73596;-75
2023/12/01 17:01:10;;;;;;;;;15.25;14.00;;;;;23.31;29.31;99971.63;245392;1183;72621;-75
2023/12/01 17:06:15;;;;;;;;;14.00;14.00;;;;;23.30;29.43;99965.69;245445;1182;74381;-75
2023/12/01 17:11:20;;;;;;;;;10.25;10.25;;;;;23.30;29.26;99955.61;245398;1183;73310;-75
2023/12/01 17:16:23;;;;;;;;;15.00;14.50;;;;;23.30;29.39;99954.09;245420;1178;73114;-75
2023/12/01 17:21:29;;;;;;;;;12.25;12.25;;;;;23.30;29.33;99949.23;245388;1177;73070;-75
2023/12/01 17:26:33;;;;;;;;;16.25;14.00;;;;;23.30;29.29;99943.93;245412;1182;73081;-75
2023/12/01 17:31:37;;;;;;;;;14.00;14.00;;;;;23.29;29.48;99937.86;245435;1183;73235;-75
2023/12/01 17:36:41;;;;;;;;;16.00;14.50;;;;;23.28;29.33;99927.76;245392;1183;74051;-76
2023/12/01 17:41:46;;;;;;;;;13.75;13.75;;;;;23.27;29.40;99921.96;245425;1182;73633;-76
2023/12/01 17:46:50;;;;;;;;;13.00;13.00;;;;;23.28;29.20;99926.94;245392;1183;73781;-75
2023/12/01 17:51:54;;;;;;;;;13.00;13.00;;;;;23.28;29.26;99944.01;245396;1190;73907;-76
2023/12/01 17:56:58;;;;;;;;;11.75;11.25;;;;;23.27;29.33;99932.16;245403;1184;73862;-75
2023/12/01 18:02:02;;;;;;;;;13.75;13.75;;;;;23.26;29.47;99925.27;245437;1183;72913;-75
2023/12/01 18:07:06;;;;;;;;;13.25;13.00;;;;;23.26;29.52;99923.90;245414;1177;71621;-75
2023/12/01 18:12:10;;;;;;;;;14.25;13.75;;;;;23.24;29.43;99929.70;245453;1177;74144;-75
2023/12/01 18:17:15;;;;;;;;;13.50;13.00;;;;;23.23;29.42;99930.23;245382;1182;74239;-75
2023/12/01 18:22:19;;;;;;;;;13.00;13.00;;;;;23.23;29.38;99931.37;245417;1182;72787;-75
2023/12/01 18:27:24;;;;;;;;;12.25;12.00;;;;;23.23;29.54;99926.89;245411;1182;73686;-75
2023/12/01 18:32:29;;;;;;;;;14.50;14.25;;;;;23.22;29.39;99932.55;245406;1183;73494;-75
2023/12/01 18:37:34;;;;;;;;;13.00;11.75;;;;;23.22;29.43;99936.69;245427;1183;73109;-75
2023/12/01 18:42:38;;;;;;;;;12.25;12.00;;;;;23.23;29.47;99943.92;245406;1184;74285;-75
2023/12/01 18:47:43;;;;;;;;;17.00;15.25;;;;;23.24;29.41;99949.10;245369;1178;73020;-75
2023/12/01 18:52:47;;;;;;;;;14.50;14.50;;;;;23.23;29.42;99946.20;245404;1183;73871;-75
2023/12/01 18:57:51;;;;;;;;;15.00;14.00;;;;;23.22;29.31;99938.98;245445;1180;72624;-75
2023/12/01 19:02:57;;;;;;;;;12.00;12.00;;;;;23.23;29.38;99940.81;245424;1183;73201;-75
2023/12/01 19:08:01;;;;;;;;;15.50;15.50;;;;;23.22;29.48;99939.53;245398;1183;72651;-75
2023/12/01 19:13:08;;;;;;;;;15.00;15.00;;;;;23.23;29.51;99957.98;245394;1183;72653;-75
2023/12/01 19:18:13;;;;;;;;;11.67;11.67;;;;;23.23;29.44;99968.05;245415;1183;73764;-75
2023/12/01 19:23:17;;;;;;;;;12.50;12.50;;;;;23.23;29.60;99970.05;245392;1184;74188;-75
2023/12/01 19:28:22;;;;;;;;;14.25;13.75;;;;;23.23;29.58;99972.67;245422;1182;73561;-75
2023/12/01 19:33:27;;;;;;;;;13.33;13.33;;;;;23.22;29.60;99968.79;245416;1180;73531;-75
2023/12/01 19:38:31;;;;;;;;;15.25;13.75;;;;;23.22;29.60;99970.80;245415;1183;74788;-75
2023/12/01 19:43:35;;;;;;;;;13.00;11.50;;;;;23.21;29.70;99964.45;245414;1177;72985;-75
2023/12/01 19:48:40;;;;;;;;;14.50;11.25;;;;;23.20;29.58;99965.09;245393;1183;73517;-75
2023/12/01 19:53:44;;;;;;;;;14.25;14.25;;;;;23.20;29.62;99966.56;245385;1191;72139;-75
2023/12/01 19:58:48;;;;;;;;;13.00;13.00;;;;;23.20;29.62;99969.38;245386;1177;72827;-75
2023/12/01 20:03:53;;;;;;;;;12.25;12.25;;;;;23.21;29.76;99982.55;245408;1182;73020;-76
2023/12/01 20:08:57;;;;;;;;;15.00;14.75;;;;;23.19;29.59;99987.64;245450;1182;74200;-76
2023/12/01 20:14:02;;;;;;;;;16.25;14.00;;;;;23.18;29.79;99986.38;245364;1191;73686;-75
2023/12/01 20:19:08;;;;;;;;;18.33;15.67;;;;;23.18;29.71;99979.98;245418;1182;73159;-75
2023/12/01 20:24:13;;;;;;;;;12.00;12.00;;;;;23.17;29.51;99969.77;245367;1179;72992;-75
2023/12/01 20:29:17;;;;;;;;;14.75;14.75;;;;;23.17;29.76;99965.52;245416;1183;73366;-75
2023/12/01 20:34:22;;;;;;;;;16.25;16.25;;;;;23.16;29.77;99962.89;245403;1183;73674;-76
2023/12/01 20:39:26;;;;;;;;;14.00;12.00;;;;;23.16;29.68;99962.84;245387;1184;73657;-75
2023/12/01 20:44:31;;;;;;;;;14.25;14.25;;;;;23.17;29.55;99962.91;245337;1183;73353;-75
2023/12/01 20:49:35;;;;;;;;;13.00;13.00;;;;;23.17;29.80;99964.92;245379;1180;73004;-76
2023/12/01 20:54:41;;;;;;;;;13.00;13.00;;;;;23.16;29.68;99968.08;245420;1183;72118;-75
2023/12/01 20:59:46;;;;;;;;;11.00;11.00;;;;;23.17;29.89;99966.66;245406;1177;73395;-75
2023/12/01 21:04:50;;;;;;;;;18.50;16.25;;;;;23.17;29.66;99970.20;245454;1182;73348;-75
2023/12/01 21:09:55;;;;;;;;;16.67;15.00;;;;;23.15;29.59;99969.86;245379;1183;73947;-75
2023/12/01 21:14:59;;;;;;;;;16.25;16.25;;;;;23.15;29.78;99975.91;245378;1183;73511;-75
2023/12/01 21:20:05;;;;;;;;;14.25;14.25;;;;;23.15;29.69;99981.31;245383;1182;74129;-75
2023/12/01 21:25:09;;;;;;;;;14.25;14.25;;;;;23.15;29.67;99974.15;245411;1183;73018;-75
2023/12/01 21:30:13;;;;;;;;;17.25;15.50;;;;;23.15;29.85;99972.33;245359;1183;72957;-75
2023/12/01 21:35:18;;;;;;;;;14.75;14.75;;;;;23.13;29.77;99971.05;245403;1182;73072;-75
2023/12/01 21:40:22;;;;;;;;;17.75;16.75;;;;;23.13;29.78;99967.24;245391;1183;73609;-75
2023/12/01 21:45:26;;;;;;;;;14.00;14.00;;;;;23.14;29.73;99963.48;245407;1183;72596;-76
2023/12/01 21:50:30;;;;;;;;;15.00;15.00;;;;;23.14;29.73;99962.40;245422;1184;74394;-76
2023/12/01 21:55:34;;;;;;;;;12.75;11.75;;;;;23.14;29.75;99953.93;245382;1191;73044;-76
2023/12/01 22:00:38;;;;;;;;;14.25;14.25;;;;;23.13;29.89;99948.75;245456;1183;72956;-76
2023/12/01 22:05:42;;;;;;;;;10.75;10.75;;;;;23.12;29.88;99942.45;245433;1183;73378;-76
2023/12/01 22:10:46;;;;;;;;;13.25;13.25;;;;;23.12;29.94;99929.58;245409;1183;72165;-76
2023/12/01 22:15:51;;;;;;;;;15.50;14.50;;;;;23.11;30.08;99934.04;245443;1182;73394;-76
2023/12/01 22:20:55;;;;;;;;;14.75;14.25;;;;;23.12;30.01;99926.96;245370;1177;73988;-76
2023/12/01 22:26:00;;;;;;;;;14.75;14.75;;;;;23.11;30.07;99922.16;245396;1182;72247;-76
2023/12/01 22:31:05;;;;;;;;;14.75;14.75;;;;;23.11;30.14;99918.21;245414;1184;73487;-76
2023/12/01 22:36:10;;;;;;;;;15.25;15.25;;;;;23.11;30.12;99920.34;245389;1182;72975;-76
2023/12/01 22:41:18;;;;;;;;;15.00;14.00;;;;;23.11;30.11;99916.20;245387;1191;72924;-76
2023/12/01 22:46:23;;;;;;;;;13.75;13.75;;;;;23.11;30.19;99915.11;245375;1183;73000;-76
2023/12/01 22:51:28;;;;;;;;;14.75;14.50;;;;;23.11;30.14;99914.61;245414;1184;73535;-76
2023/12/01 22:56:32;;;;;;;;;15.25;15.25;;;;;23.11;30.11;99918.60;245385;1183;73109;-76
2023/12/01 23:01:36;;;;;;;;;13.00;13.00;;;;;23.10;30.12;99918.57;245414;1182;73461;-76